createdAt,value
2022-12-08T00:30:21.139Z,99986
2022-12-08T00:43:09.922Z,99971
2022-12-08T00:56:47.091Z,99954
2022-12-08T01:15:50.248Z,99947
2022-12-08T01:58:53.293Z,99941
2022-12-08T02:04:56.698Z,99939
2022-12-08T03:14:24.161Z,99872
2022-12-08T03:20:12.799Z,99862
2022-12-08T03:26:10.020Z,99863
2022-12-08T03:32:00.535Z,99856
2022-12-08T03:37:51.812Z,99846
2022-12-08T03:43:44.823Z,99830
2022-12-08T03:49:40.601Z,99823
2022-12-08T03:55:34.965Z,99817
2022-12-08T04:01:26.915Z,99809
2022-12-08T04:07:18.060Z,99800
2022-12-08T04:13:08.805Z,99797
2022-12-08T04:19:00.180Z,99787
2022-12-08T04:24:50.632Z,99780
2022-12-08T04:30:45.946Z,99783
2022-12-08T04:36:37.283Z,99780
2022-12-08T04:42:27.668Z,99783
2022-12-08T04:48:24.303Z,99778
2022-12-08T04:54:17.597Z,99783
2022-12-08T05:00:20.195Z,99776
2022-12-08T05:06:11.388Z,99771
2022-12-08T05:12:04.418Z,99768
2022-12-08T05:17:56.878Z,99776
2022-12-08T05:23:49.464Z,99766
2022-12-08T05:29:43.661Z,99763
2022-12-08T05:35:39.544Z,99753
2022-12-08T05:41:36.862Z,99749
2022-12-08T05:47:30.711Z,99742
2022-12-08T05:53:24.908Z,99743
2022-12-08T05:59:16.209Z,99741
2022-12-08T06:05:08.546Z,99736
2022-12-08T06:11:00.492Z,99736
2022-12-08T06:16:53.685Z,99739
2022-12-08T06:22:44.799Z,99735
2022-12-08T06:28:36.850Z,99741
2022-12-08T06:34:30.148Z,99744
2022-12-08T06:40:22.555Z,99740
2022-12-08T06:46:23.798Z,99739
2022-12-08T06:52:18.163Z,99735
2022-12-08T07:04:40.356Z,99745
2022-12-08T07:10:33.368Z,99744
2022-12-08T07:16:32.322Z,99746
2022-12-08T07:22:24.873Z,99749
2022-12-08T07:28:16.425Z,99754
2022-12-08T07:34:08.754Z,99758
2022-12-08T07:40:00.361Z,99750
2022-12-08T07:45:52.843Z,99752
2022-12-08T07:51:43.496Z,99750
2022-12-08T07:57:34.659Z,99750
2022-12-08T08:03:26.631Z,99749
2022-12-08T08:09:20.018Z,99749
2022-12-08T08:15:11.203Z,99749
2022-12-08T08:21:49.737Z,99752
2022-12-08T08:27:37.235Z,99757
2022-12-08T08:33:29.320Z,99754
2022-12-08T08:39:21.101Z,99752
2022-12-08T08:45:12.468Z,99758
2022-12-08T08:51:06.326Z,99751
2022-12-08T08:56:56.996Z,99757
2022-12-08T09:02:49.810Z,99754
2022-12-08T09:08:39.935Z,99755
2022-12-08T09:15:41.756Z,99763
2022-12-08T09:28:19.436Z,99762
2022-12-08T09:34:10.189Z,99762
2022-12-08T09:40:08.300Z,99756
2022-12-08T09:46:13.687Z,99762
2022-12-08T09:52:06.787Z,99762
2022-12-08T09:58:00.636Z,99756
2022-12-08T10:03:51.608Z,99749
2022-12-08T10:09:43.970Z,99741
2022-12-08T10:15:35.377Z,99736
2022-12-08T10:21:26.981Z,99734
2022-12-08T10:27:20.797Z,99726
2022-12-08T10:33:11.475Z,99714
2022-12-08T10:39:03.380Z,99710
2022-12-08T10:44:55.950Z,99706
2022-12-08T10:50:46.560Z,99698
2022-12-08T10:56:39.651Z,99694
2022-12-08T11:02:30.599Z,99686
2022-12-08T11:08:22.497Z,99679
2022-12-08T11:14:12.986Z,99669
2022-12-08T11:20:04.019Z,99673
2022-12-08T11:26:00.780Z,99665
2022-12-08T11:31:52.440Z,99657
2022-12-08T11:37:41.163Z,99663
2022-12-08T11:43:33.365Z,99653
2022-12-08T11:49:23.013Z,99653
2022-12-08T11:55:12.664Z,99646
2022-12-08T12:01:04.058Z,99642
2022-12-08T12:07:07.405Z,99636
2022-12-08T12:12:59.067Z,99639
2022-12-08T12:18:51.202Z,99634
2022-12-08T12:24:41.328Z,99635
2022-12-08T12:30:35.133Z,99627
2022-12-08T12:36:41.070Z,99623
2022-12-08T12:42:44.515Z,99623
2022-12-08T12:49:01.680Z,99618
2022-12-08T12:54:54.977Z,99611
2022-12-08T13:00:46.763Z,99609
2022-12-08T13:06:53.445Z,99603
2022-12-08T13:12:44.233Z,99602
2022-12-08T13:18:42.904Z,99599
2022-12-08T13:24:35.003Z,99609
2022-12-08T13:32:08.768Z,99608
2022-12-08T13:38:02.621Z,99598
2022-12-08T13:46:12.488Z,99593
2022-12-08T14:02:19.042Z,99586
2022-12-08T14:08:11.112Z,99586
2022-12-08T14:15:15.395Z,99594
2022-12-08T14:21:24.706Z,99595
2022-12-08T14:27:32.156Z,99591
2022-12-08T14:33:29.959Z,99589
2022-12-08T14:39:33.075Z,99598
2022-12-08T14:45:25.612Z,99598
2022-12-08T14:51:28.819Z,99602
2022-12-08T14:57:25.258Z,99601
2022-12-08T15:03:18.914Z,99600
2022-12-08T15:09:24.725Z,99602
2022-12-08T15:15:15.605Z,99605
2022-12-08T15:21:13.157Z,99608
2022-12-08T15:27:14.252Z,99619
2022-12-08T15:33:07.509Z,99623
2022-12-08T15:39:03.606Z,99617
2022-12-08T15:44:56.290Z,99618
2022-12-08T15:51:00.835Z,99618
2022-12-08T15:58:17.353Z,99621
2022-12-08T16:06:20.413Z,99628
2022-12-08T16:14:15.067Z,99622
2022-12-08T16:23:26.637Z,99621
2022-12-08T16:29:33.503Z,99609
2022-12-08T16:35:36.314Z,99616
2022-12-08T16:41:37.104Z,99609
2022-12-08T16:47:27.290Z,99614
2022-12-08T16:53:18.634Z,99605
2022-12-08T16:59:09.960Z,99598
2022-12-08T17:05:06.156Z,99608
2022-12-08T17:10:57.614Z,99600
2022-12-08T17:16:49.467Z,99595
2022-12-08T17:22:55.790Z,99592
2022-12-08T17:29:25.727Z,99588
2022-12-08T17:35:16.440Z,99585
2022-12-08T17:41:14.009Z,99599
2022-12-08T17:47:04.919Z,99595
2022-12-08T17:52:58.037Z,99589
2022-12-08T17:59:03.908Z,99594
2022-12-08T18:05:12.809Z,99586
2022-12-08T18:11:05.512Z,99589
2022-12-08T18:17:01.621Z,99599
2022-12-08T18:23:02.004Z,99602
2022-12-08T18:28:55.427Z,99598
2022-12-08T18:34:57.341Z,99593
2022-12-08T18:40:47.391Z,99588
2022-12-08T18:46:40.676Z,99586
2022-12-08T18:52:36.377Z,99586
2022-12-08T18:58:27.834Z,99582
2022-12-08T19:10:42.395Z,99596
2022-12-08T19:16:33.595Z,99606
2022-12-08T19:22:23.325Z,99605
2022-12-08T19:28:12.760Z,99608
2022-12-08T19:34:04.512Z,99611
2022-12-08T19:39:59.363Z,99609
2022-12-08T19:45:50.382Z,99605
2022-12-08T19:51:50.409Z,99602
2022-12-08T19:57:47.042Z,99599
2022-12-08T20:05:12.641Z,99605
2022-12-08T20:11:00.632Z,99606
2022-12-08T20:16:53.368Z,99598
2022-12-08T20:22:54.210Z,99607
2022-12-08T20:28:44.268Z,99605
2022-12-08T20:34:47.189Z,99608
2022-12-08T20:40:36.456Z,99615
2022-12-08T20:46:32.091Z,99610
2022-12-08T20:52:24.654Z,99603
2022-12-08T20:58:40.648Z,99602
2022-12-08T21:11:05.039Z,99606
2022-12-08T21:17:09.661Z,99600
2022-12-08T21:23:02.089Z,99595
2022-12-08T21:29:00.692Z,99598
2022-12-08T21:34:51.514Z,99602
2022-12-08T21:40:44.847Z,99607
2022-12-08T21:46:35.598Z,99606
2022-12-08T21:52:34.039Z,99608
2022-12-08T21:58:34.166Z,99608
2022-12-08T22:04:28.172Z,99605
2022-12-08T22:10:21.041Z,99602
2022-12-08T22:16:25.106Z,99598
2022-12-08T22:22:30.348Z,99600
2022-12-08T22:28:24.986Z,99599
2022-12-08T22:34:27.286Z,99606
2022-12-08T22:40:22.411Z,99606
2022-12-08T22:46:41.597Z,99600
2022-12-08T22:52:49.663Z,99597
2022-12-08T22:58:57.504Z,99598
2022-12-08T23:11:28.966Z,99599
2022-12-08T23:36:45.459Z,99581
2022-12-08T23:42:57.848Z,99581
2022-12-08T23:49:04.033Z,99583
